sensor_id;sensor_type;location;lat;lon;timestamp;temperature;humidity
70271;SHT31;57680;54.292;18.598;2024-02-15T00:02:21;4.90;95.81
70271;SHT31;57680;54.292;18.598;2024-02-15T00:04:46;4.87;95.73
70271;SHT31;57680;54.292;18.598;2024-02-15T00:07:12;4.87;95.71
70271;SHT31;57680;54.292;18.598;2024-02-15T00:09:37;4.88;95.79
70271;SHT31;57680;54.292;18.598;2024-02-15T00:12:02;4.88;95.70
70271;SHT31;57680;54.292;18.598;2024-02-15T00:14:28;4.91;95.82
70271;SHT31;57680;54.292;18.598;2024-02-15T00:16:53;4.94;95.79
70271;SHT31;57680;54.292;18.598;2024-02-15T00:19:19;4.94;95.77
70271;SHT31;57680;54.292;18.598;2024-02-15T00:21:44;4.94;95.77
70271;SHT31;57680;54.292;18.598;2024-02-15T00:24:10;4.97;95.77
70271;SHT31;57680;54.292;18.598;2024-02-15T00:26:35;4.97;95.75
70271;SHT31;57680;54.292;18.598;2024-02-15T00:29:00;5.00;95.69
70271;SHT31;57680;54.292;18.598;2024-02-15T00:31:26;4.98;95.70
70271;SHT31;57680;54.292;18.598;2024-02-15T00:33:51;5.01;95.66
70271;SHT31;57680;54.292;18.598;2024-02-15T00:36:16;5.03;95.64
70271;SHT31;57680;54.292;18.598;2024-02-15T00:38:42;5.03;95.69
70271;SHT31;57680;54.292;18.598;2024-02-15T00:41:07;5.04;95.67
70271;SHT31;57680;54.292;18.598;2024-02-15T00:43:34;5.01;95.68
70271;SHT31;57680;54.292;18.598;2024-02-15T00:46:00;5.05;95.78
70271;SHT31;57680;54.292;18.598;2024-02-15T00:48:25;5.07;95.78
70271;SHT31;57680;54.292;18.598;2024-02-15T00:50:50;5.03;95.80
70271;SHT31;57680;54.292;18.598;2024-02-15T00:53:16;5.08;95.90
70271;SHT31;57680;54.292;18.598;2024-02-15T00:55:41;5.07;95.97
70271;SHT31;57680;54.292;18.598;2024-02-15T00:58:06;5.07;95.97
70271;SHT31;57680;54.292;18.598;2024-02-15T01:00:31;5.08;95.84
70271;SHT31;57680;54.292;18.598;2024-02-15T01:02:57;5.04;95.85
70271;SHT31;57680;54.292;18.598;2024-02-15T01:05:23;5.03;95.88
70271;SHT31;57680;54.292;18.598;2024-02-15T01:07:48;5.01;96.03
70271;SHT31;57680;54.292;18.598;2024-02-15T01:10:13;5.00;96.13
70271;SHT31;57680;54.292;18.598;2024-02-15T01:12:39;5.00;96.18
70271;SHT31;57680;54.292;18.598;2024-02-15T01:15:04;4.98;96.29
70271;SHT31;57680;54.292;18.598;2024-02-15T01:17:30;5.00;96.32
70271;SHT31;57680;54.292;18.598;2024-02-15T01:19:55;4.97;96.36
70271;SHT31;57680;54.292;18.598;2024-02-15T01:22:20;4.97;96.49
70271;SHT31;57680;54.292;18.598;2024-02-15T01:24:46;4.97;96.61
70271;SHT31;57680;54.292;18.598;2024-02-15T01:27:11;4.97;96.65
70271;SHT31;57680;54.292;18.598;2024-02-15T01:29:36;4.98;96.71
70271;SHT31;57680;54.292;18.598;2024-02-15T01:32:02;4.98;96.87
70271;SHT31;57680;54.292;18.598;2024-02-15T01:34:28;4.98;96.92
70271;SHT31;57680;54.292;18.598;2024-02-15T01:36:53;4.97;96.97
70271;SHT31;57680;54.292;18.598;2024-02-15T01:39:18;4.95;97.09
70271;SHT31;57680;54.292;18.598;2024-02-15T01:41:48;4.95;97.15
70271;SHT31;57680;54.292;18.598;2024-02-15T01:44:13;4.95;97.20
70271;SHT31;57680;54.292;18.598;2024-02-15T01:46:39;4.91;97.23
70271;SHT31;57680;54.292;18.598;2024-02-15T01:49:05;4.97;97.51
70271;SHT31;57680;54.292;18.598;2024-02-15T01:51:31;4.98;97.68
70271;SHT31;57680;54.292;18.598;2024-02-15T01:53:57;5.04;97.72
70271;SHT31;57680;54.292;18.598;2024-02-15T01:56:22;5.03;97.70
70271;SHT31;57680;54.292;18.598;2024-02-15T01:58:48;5.05;97.76
70271;SHT31;57680;54.292;18.598;2024-02-15T02:01:14;5.04;97.80
70271;SHT31;57680;54.292;18.598;2024-02-15T02:03:40;5.07;97.90
70271;SHT31;57680;54.292;18.598;2024-02-15T02:06:05;5.07;97.94
70271;SHT31;57680;54.292;18.598;2024-02-15T02:08:30;5.07;98.06
70271;SHT31;57680;54.292;18.598;2024-02-15T02:10:56;5.05;98.09
70271;SHT31;57680;54.292;18.598;2024-02-15T02:13:22;5.07;98.18
70271;SHT31;57680;54.292;18.598;2024-02-15T02:15:47;5.03;98.13
70271;SHT31;57680;54.292;18.598;2024-02-15T02:18:12;5.00;98.19
70271;SHT31;57680;54.292;18.598;2024-02-15T02:20:38;4.98;98.25
70271;SHT31;57680;54.292;18.598;2024-02-15T02:23:07;4.94;98.37
70271;SHT31;57680;54.292;18.598;2024-02-15T02:25:34;4.95;98.40
70271;SHT31;57680;54.292;18.598;2024-02-15T02:28:00;4.95;98.49
70271;SHT31;57680;54.292;18.598;2024-02-15T02:30:26;4.91;98.58
70271;SHT31;57680;54.292;18.598;2024-02-15T02:32:51;4.90;98.77
70271;SHT31;57680;54.292;18.598;2024-02-15T02:35:16;4.93;98.83
70271;SHT31;57680;54.292;18.598;2024-02-15T02:37:42;4.91;98.86
70271;SHT31;57680;54.292;18.598;2024-02-15T02:40:09;4.91;98.93
70271;SHT31;57680;54.292;18.598;2024-02-15T02:45:15;4.88;99.12
70271;SHT31;57680;54.292;18.598;2024-02-15T02:47:41;4.87;99.22
70271;SHT31;57680;54.292;18.598;2024-02-15T02:50:07;4.90;99.39
70271;SHT31;57680;54.292;18.598;2024-02-15T02:52:32;4.93;99.37
70271;SHT31;57680;54.292;18.598;2024-02-15T02:54:58;4.88;99.46
70271;SHT31;57680;54.292;18.598;2024-02-15T02:57:23;4.93;99.62
70271;SHT31;57680;54.292;18.598;2024-02-15T02:59:49;4.93;99.76
70271;SHT31;57680;54.292;18.598;2024-02-15T03:02:14;4.97;99.82
70271;SHT31;57680;54.292;18.598;2024-02-15T03:04:39;5.01;99.85
70271;SHT31;57680;54.292;18.598;2024-02-15T03:07:05;5.00;99.89
70271;SHT31;57680;54.292;18.598;2024-02-15T03:09:30;5.01;99.91
70271;SHT31;57680;54.292;18.598;2024-02-15T03:11:56;5.00;99.95
70271;SHT31;57680;54.292;18.598;2024-02-15T03:14:21;5.00;99.99
70271;SHT31;57680;54.292;18.598;2024-02-15T03:16:46;4.98;99.99
70271;SHT31;57680;54.292;18.598;2024-02-15T03:19:11;5.00;99.99
70271;SHT31;57680;54.292;18.598;2024-02-15T03:21:37;5.01;99.99
70271;SHT31;57680;54.292;18.598;2024-02-15T03:24:02;5.04;99.99
70271;SHT31;57680;54.292;18.598;2024-02-15T03:26:32;5.01;99.99
70271;SHT31;57680;54.292;18.598;2024-02-15T03:28:57;5.04;99.99
70271;SHT31;57680;54.292;18.598;2024-02-15T03:31:22;5.01;99.99
70271;SHT31;57680;54.292;18.598;2024-02-15T03:33:48;5.03;99.99
70271;SHT31;57680;54.292;18.598;2024-02-15T03:36:13;5.03;99.99
70271;SHT31;57680;54.292;18.598;2024-02-15T03:38:38;4.98;99.99
70271;SHT31;57680;54.292;18.598;2024-02-15T03:41:04;5.01;99.99
70271;SHT31;57680;54.292;18.598;2024-02-15T03:43:29;5.00;99.99
70271;SHT31;57680;54.292;18.598;2024-02-15T03:45:54;4.98;99.99
70271;SHT31;57680;54.292;18.598;2024-02-15T03:48:19;4.97;99.99
70271;SHT31;57680;54.292;18.598;2024-02-15T03:50:45;5.01;99.99
70271;SHT31;57680;54.292;18.598;2024-02-15T03:53:10;5.01;99.99
70271;SHT31;57680;54.292;18.598;2024-02-15T03:55:35;5.00;99.99
70271;SHT31;57680;54.292;18.598;2024-02-15T03:58:01;4.97;99.99
70271;SHT31;57680;54.292;18.598;2024-02-15T04:00:26;4.98;99.99
70271;SHT31;57680;54.292;18.598;2024-02-15T04:02:52;4.97;99.99
70271;SHT31;57680;54.292;18.598;2024-02-15T04:05:17;5.01;99.99
70271;SHT31;57680;54.292;18.598;2024-02-15T04:07:42;5.03;99.99
70271;SHT31;57680;54.292;18.598;2024-02-15T04:10:08;5.05;99.99
70271;SHT31;57680;54.292;18.598;2024-02-15T04:12:33;5.07;99.99
70271;SHT31;57680;54.292;18.598;2024-02-15T04:14:59;5.11;99.99
70271;SHT31;57680;54.292;18.598;2024-02-15T04:17:24;5.08;99.99
70271;SHT31;57680;54.292;18.598;2024-02-15T04:19:49;5.12;99.99
70271;SHT31;57680;54.292;18.598;2024-02-15T04:22:14;5.12;99.99
70271;SHT31;57680;54.292;18.598;2024-02-15T04:24:40;5.14;99.99
70271;SHT31;57680;54.292;18.598;2024-02-15T04:27:06;5.14;99.99
70271;SHT31;57680;54.292;18.598;2024-02-15T04:29:31;5.14;99.99
70271;SHT31;57680;54.292;18.598;2024-02-15T04:31:57;5.14;99.99
70271;SHT31;57680;54.292;18.598;2024-02-15T04:34:22;5.15;99.99
70271;SHT31;57680;54.292;18.598;2024-02-15T04:36:48;5.17;99.99
70271;SHT31;57680;54.292;18.598;2024-02-15T04:39:15;5.15;99.99
70271;SHT31;57680;54.292;18.598;2024-02-15T04:41:43;5.14;99.99
70271;SHT31;57680;54.292;18.598;2024-02-15T04:44:08;5.12;99.99
70271;SHT31;57680;54.292;18.598;2024-02-15T04:46:33;5.10;99.99
70271;SHT31;57680;54.292;18.598;2024-02-15T04:48:59;5.12;99.99
70271;SHT31;57680;54.292;18.598;2024-02-15T04:54:27;5.08;99.99
70271;SHT31;57680;54.292;18.598;2024-02-15T04:56:52;5.07;99.99
70271;SHT31;57680;54.292;18.598;2024-02-15T04:59:18;5.08;99.99
70271;SHT31;57680;54.292;18.598;2024-02-15T05:01:44;5.05;99.99
70271;SHT31;57680;54.292;18.598;2024-02-15T05:04:10;5.08;99.99
70271;SHT31;57680;54.292;18.598;2024-02-15T05:06:39;5.08;99.99
70271;SHT31;57680;54.292;18.598;2024-02-15T05:09:04;5.10;99.99
70271;SHT31;57680;54.292;18.598;2024-02-15T05:11:30;5.10;99.99
70271;SHT31;57680;54.292;18.598;2024-02-15T05:13:55;5.12;99.99
70271;SHT31;57680;54.292;18.598;2024-02-15T05:16:20;5.11;99.99
70271;SHT31;57680;54.292;18.598;2024-02-15T05:18:46;5.17;99.99
70271;SHT31;57680;54.292;18.598;2024-02-15T05:21:11;5.21;99.99
70271;SHT31;57680;54.292;18.598;2024-02-15T05:23:38;5.22;99.99
70271;SHT31;57680;54.292;18.598;2024-02-15T05:26:03;5.22;99.99
70271;SHT31;57680;54.292;18.598;2024-02-15T05:28:29;5.27;99.99
70271;SHT31;57680;54.292;18.598;2024-02-15T05:33:37;5.30;99.99
70271;SHT31;57680;54.292;18.598;2024-02-15T05:36:03;5.31;99.99
70271;SHT31;57680;54.292;18.598;2024-02-15T05:38:28;5.31;99.99
70271;SHT31;57680;54.292;18.598;2024-02-15T05:40:54;5.32;99.99
70271;SHT31;57680;54.292;18.598;2024-02-15T05:43:19;5.32;99.99
70271;SHT31;57680;54.292;18.598;2024-02-15T05:45:44;5.34;99.99
70271;SHT31;57680;54.292;18.598;2024-02-15T05:48:09;5.35;99.99
70271;SHT31;57680;54.292;18.598;2024-02-15T05:50:35;5.38;99.99
70271;SHT31;57680;54.292;18.598;2024-02-15T05:53:00;5.36;99.99
70271;SHT31;57680;54.292;18.598;2024-02-15T05:55:25;5.38;99.99
70271;SHT31;57680;54.292;18.598;2024-02-15T05:57:51;5.36;99.99
70271;SHT31;57680;54.292;18.598;2024-02-15T06:00:17;5.34;99.99
70271;SHT31;57680;54.292;18.598;2024-02-15T06:02:43;5.35;99.99
70271;SHT31;57680;54.292;18.598;2024-02-15T06:05:08;5.32;99.99
70271;SHT31;57680;54.292;18.598;2024-02-15T06:07:34;5.35;99.99
70271;SHT31;57680;54.292;18.598;2024-02-15T06:09:59;5.35;99.99
70271;SHT31;57680;54.292;18.598;2024-02-15T06:12:25;5.39;99.99
70271;SHT31;57680;54.292;18.598;2024-02-15T06:14:50;5.42;99.99
70271;SHT31;57680;54.292;18.598;2024-02-15T06:17:15;5.45;99.99
70271;SHT31;57680;54.292;18.598;2024-02-15T06:19:40;5.45;99.99
70271;SHT31;57680;54.292;18.598;2024-02-15T06:22:06;5.48;99.99
70271;SHT31;57680;54.292;18.598;2024-02-15T06:24:31;5.53;99.99
70271;SHT31;57680;54.292;18.598;2024-02-15T06:26:56;5.55;99.99
70271;SHT31;57680;54.292;18.598;2024-02-15T06:29:22;5.59;99.99
70271;SHT31;57680;54.292;18.598;2024-02-15T06:31:47;5.60;99.99
70271;SHT31;57680;54.292;18.598;2024-02-15T06:34:12;5.62;99.99
70271;SHT31;57680;54.292;18.598;2024-02-15T06:36:56;5.66;99.99
70271;SHT31;57680;54.292;18.598;2024-02-15T06:39:22;5.67;99.99
70271;SHT31;57680;54.292;18.598;2024-02-15T07:22:25;6.14;99.99
70271;SHT31;57680;54.292;18.598;2024-02-15T07:24:50;6.16;99.99
70271;SHT31;57680;54.292;18.598;2024-02-15T07:27:15;6.18;99.99
70271;SHT31;57680;54.292;18.598;2024-02-15T07:29:41;6.21;99.99
70271;SHT31;57680;54.292;18.598;2024-02-15T07:32:06;6.24;99.99
70271;SHT31;57680;54.292;18.598;2024-02-15T07:34:31;6.25;99.99
70271;SHT31;57680;54.292;18.598;2024-02-15T07:36:57;6.34;99.99
70271;SHT31;57680;54.292;18.598;2024-02-15T07:39:22;6.42;99.99
70271;SHT31;57680;54.292;18.598;2024-02-15T07:41:47;6.46;99.99
70271;SHT31;57680;54.292;18.598;2024-02-15T07:44:13;6.48;99.99
70271;SHT31;57680;54.292;18.598;2024-02-15T07:46:38;6.56;99.99
70271;SHT31;57680;54.292;18.598;2024-02-15T07:49:03;6.56;99.99
70271;SHT31;57680;54.292;18.598;2024-02-15T07:51:29;6.62;99.99
70271;SHT31;57680;54.292;18.598;2024-02-15T07:53:54;6.67;99.99
70271;SHT31;57680;54.292;18.598;2024-02-15T07:56:19;6.73;99.99
70271;SHT31;57680;54.292;18.598;2024-02-15T07:58:46;6.71;99.99
70271;SHT31;57680;54.292;18.598;2024-02-15T08:01:12;6.64;99.99
70271;SHT31;57680;54.292;18.598;2024-02-15T08:03:38;6.64;99.99
70271;SHT31;57680;54.292;18.598;2024-02-15T08:06:03;6.68;99.99
70271;SHT31;57680;54.292;18.598;2024-02-15T08:08:29;6.71;99.99
70271;SHT31;57680;54.292;18.598;2024-02-15T08:10:54;6.73;99.99
70271;SHT31;57680;54.292;18.598;2024-02-15T08:13:20;6.78;99.99
70271;SHT31;57680;54.292;18.598;2024-02-15T08:15:45;6.83;99.99
70271;SHT31;57680;54.292;18.598;2024-02-15T08:18:10;6.88;99.99
70271;SHT31;57680;54.292;18.598;2024-02-15T08:20:36;6.93;99.99
70271;SHT31;57680;54.292;18.598;2024-02-15T08:23:01;7.00;99.99
70271;SHT31;57680;54.292;18.598;2024-02-15T08:25:26;7.09;99.99
70271;SHT31;57680;54.292;18.598;2024-02-15T08:27:52;7.22;99.99
70271;SHT31;57680;54.292;18.598;2024-02-15T08:30:17;7.34;99.99
70271;SHT31;57680;54.292;18.598;2024-02-15T08:32:43;7.46;99.99
70271;SHT31;57680;54.292;18.598;2024-02-15T08:35:09;7.54;99.99
70271;SHT31;57680;54.292;18.598;2024-02-15T08:37:36;7.61;99.99
70271;SHT31;57680;54.292;18.598;2024-02-15T08:40:03;7.67;99.99
70271;SHT31;57680;54.292;18.598;2024-02-15T08:42:29;7.77;99.99
70271;SHT31;57680;54.292;18.598;2024-02-15T08:44:54;7.82;99.99
70271;SHT31;57680;54.292;18.598;2024-02-15T08:47:19;7.82;99.99
70271;SHT31;57680;54.292;18.598;2024-02-15T08:49:44;7.82;99.99
70271;SHT31;57680;54.292;18.598;2024-02-15T08:52:10;7.79;99.99
70271;SHT31;57680;54.292;18.598;2024-02-15T08:54:35;7.88;99.99
70271;SHT31;57680;54.292;18.598;2024-02-15T08:57:01;8.02;99.99
70271;SHT31;57680;54.292;18.598;2024-02-15T08:59:26;8.09;99.99
70271;SHT31;57680;54.292;18.598;2024-02-15T09:01:52;8.23;99.78
70271;SHT31;57680;54.292;18.598;2024-02-15T09:04:17;8.36;99.95
70271;SHT31;57680;54.292;18.598;2024-02-15T09:06:42;8.39;99.56
70271;SHT31;57680;54.292;18.598;2024-02-15T09:09:08;8.33;99.44
70271;SHT31;57680;54.292;18.598;2024-02-15T09:11:33;8.26;99.12
70271;SHT31;57680;54.292;18.598;2024-02-15T09:13:59;8.29;99.26
70271;SHT31;57680;54.292;18.598;2024-02-15T09:16:24;8.28;98.90
70271;SHT31;57680;54.292;18.598;2024-02-15T09:18:49;8.22;98.83
70271;SHT31;57680;54.292;18.598;2024-02-15T09:21:15;8.22;99.07
70271;SHT31;57680;54.292;18.598;2024-02-15T09:23:40;8.21;98.95
70271;SHT31;57680;54.292;18.598;2024-02-15T09:26:06;8.16;98.84
70271;SHT31;57680;54.292;18.598;2024-02-15T09:28:31;8.16;98.93
70271;SHT31;57680;54.292;18.598;2024-02-15T09:30:56;8.09;99.01
70271;SHT31;57680;54.292;18.598;2024-02-15T09:33:22;8.05;99.06
70271;SHT31;57680;54.292;18.598;2024-02-15T09:35:47;8.05;99.12
70271;SHT31;57680;54.292;18.598;2024-02-15T09:38:12;8.06;99.25
70271;SHT31;57680;54.292;18.598;2024-02-15T09:40:38;8.13;99.40
70271;SHT31;57680;54.292;18.598;2024-02-15T09:43:03;8.21;99.41
70271;SHT31;57680;54.292;18.598;2024-02-15T09:45:29;8.25;99.13
70271;SHT31;57680;54.292;18.598;2024-02-15T09:47:55;8.26;99.08
70271;SHT31;57680;54.292;18.598;2024-02-15T09:50:24;8.35;99.40
70271;SHT31;57680;54.292;18.598;2024-02-15T09:52:51;8.47;99.49
70271;SHT31;57680;54.292;18.598;2024-02-15T09:55:17;8.54;99.46
70271;SHT31;57680;54.292;18.598;2024-02-15T09:57:44;8.61;99.35
70271;SHT31;57680;54.292;18.598;2024-02-15T10:00:10;8.67;99.13
70271;SHT31;57680;54.292;18.598;2024-02-15T10:02:36;8.75;99.28
70271;SHT31;57680;54.292;18.598;2024-02-15T10:05:02;8.75;99.17
70271;SHT31;57680;54.292;18.598;2024-02-15T10:07:28;8.78;98.93
70271;SHT31;57680;54.292;18.598;2024-02-15T10:09:54;8.81;98.81
70271;SHT31;57680;54.292;18.598;2024-02-15T10:12:19;8.78;98.62
70271;SHT31;57680;54.292;18.598;2024-02-15T10:14:48;8.80;98.56
70271;SHT31;57680;54.292;18.598;2024-02-15T10:17:14;8.83;98.58
70271;SHT31;57680;54.292;18.598;2024-02-15T10:19:39;8.83;98.63
70271;SHT31;57680;54.292;18.598;2024-02-15T10:22:09;8.81;98.39
70271;SHT31;57680;54.292;18.598;2024-02-15T10:24:35;8.80;98.25
70271;SHT31;57680;54.292;18.598;2024-02-15T10:27:01;8.84;98.40
70271;SHT31;57680;54.292;18.598;2024-02-15T10:29:27;8.81;98.14
70271;SHT31;57680;54.292;18.598;2024-02-15T10:31:57;8.77;98.06
70271;SHT31;57680;54.292;18.598;2024-02-15T10:34:23;8.84;98.20
70271;SHT31;57680;54.292;18.598;2024-02-15T10:36:48;8.81;98.06
70271;SHT31;57680;54.292;18.598;2024-02-15T10:39:18;8.85;98.33
70271;SHT31;57680;54.292;18.598;2024-02-15T10:41:44;8.88;98.24
70271;SHT31;57680;54.292;18.598;2024-02-15T10:44:21;8.87;97.80
70271;SHT31;57680;54.292;18.598;2024-02-15T10:46:49;8.88;97.87
70271;SHT31;57680;54.292;18.598;2024-02-15T10:49:14;8.92;97.89
70271;SHT31;57680;54.292;18.598;2024-02-15T10:51:43;9.00;97.95
70271;SHT31;57680;54.292;18.598;2024-02-15T10:54:12;8.95;97.51
70271;SHT31;57680;54.292;18.598;2024-02-15T10:56:43;8.95;97.51
70271;SHT31;57680;54.292;18.598;2024-02-15T11:01:40;8.98;97.77
70271;SHT31;57680;54.292;18.598;2024-02-15T11:04:08;9.04;97.94
70271;SHT31;57680;54.292;18.598;2024-02-15T11:06:35;9.05;97.89
70271;SHT31;57680;54.292;18.598;2024-02-15T11:09:02;9.15;97.91
70271;SHT31;57680;54.292;18.598;2024-02-15T11:11:29;9.11;97.50
70271;SHT31;57680;54.292;18.598;2024-02-15T11:16:51;9.16;97.72
70271;SHT31;57680;54.292;18.598;2024-02-15T11:22:00;9.29;97.70
70271;SHT31;57680;54.292;18.598;2024-02-15T11:24:26;9.34;97.76
70271;SHT31;57680;54.292;18.598;2024-02-15T11:27:01;9.38;97.04
70271;SHT31;57680;54.292;18.598;2024-02-15T11:29:48;9.50;97.55
70271;SHT31;57680;54.292;18.598;2024-02-15T11:35:03;9.67;97.31
70271;SHT31;57680;54.292;18.598;2024-02-15T11:40:13;9.76;96.51
70271;SHT31;57680;54.292;18.598;2024-02-15T11:42:38;9.83;96.91
70271;SHT31;57680;54.292;18.598;2024-02-15T11:45:05;9.80;96.44
70271;SHT31;57680;54.292;18.598;2024-02-15T11:47:32;9.84;96.61
70271;SHT31;57680;54.292;18.598;2024-02-15T11:50:01;9.91;96.62
70271;SHT31;57680;54.292;18.598;2024-02-15T11:52:26;9.96;96.31
70271;SHT31;57680;54.292;18.598;2024-02-15T11:54:52;10.01;96.06
70271;SHT31;57680;54.292;18.598;2024-02-15T11:57:17;10.07;95.74
70271;SHT31;57680;54.292;18.598;2024-02-15T11:59:43;10.14;95.54
70271;SHT31;57680;54.292;18.598;2024-02-15T12:02:08;10.30;95.68
70271;SHT31;57680;54.292;18.598;2024-02-15T12:04:34;10.42;95.66
70271;SHT31;57680;54.292;18.598;2024-02-15T12:06:59;10.44;95.16
70271;SHT31;57680;54.292;18.598;2024-02-15T12:09:24;10.45;94.84
70271;SHT31;57680;54.292;18.598;2024-02-15T12:11:57;10.45;94.62
70271;SHT31;57680;54.292;18.598;2024-02-15T12:14:23;10.48;94.86
70271;SHT31;57680;54.292;18.598;2024-02-15T12:17:07;10.46;94.56
70271;SHT31;57680;54.292;18.598;2024-02-15T12:19:33;10.52;94.92
70271;SHT31;57680;54.292;18.598;2024-02-15T12:21:59;10.58;94.85
70271;SHT31;57680;54.292;18.598;2024-02-15T12:24:24;10.66;94.84
70271;SHT31;57680;54.292;18.598;2024-02-15T12:26:50;10.71;94.59
70271;SHT31;57680;54.292;18.598;2024-02-15T12:29:18;10.69;94.03
70271;SHT31;57680;54.292;18.598;2024-02-15T12:31:43;10.66;94.02
70271;SHT31;57680;54.292;18.598;2024-02-15T12:34:09;10.69;94.03
70271;SHT31;57680;54.292;18.598;2024-02-15T12:36:34;10.72;94.15
70271;SHT31;57680;54.292;18.598;2024-02-15T12:39:01;10.71;93.74
70271;SHT31;57680;54.292;18.598;2024-02-15T12:41:27;10.68;94.10
70271;SHT31;57680;54.292;18.598;2024-02-15T12:43:53;10.65;93.94
70271;SHT31;57680;54.292;18.598;2024-02-15T12:46:19;10.58;93.83
70271;SHT31;57680;54.292;18.598;2024-02-15T12:48:45;10.54;94.07
70271;SHT31;57680;54.292;18.598;2024-02-15T12:51:16;10.48;94.15
70271;SHT31;57680;54.292;18.598;2024-02-15T12:53:42;10.44;94.33
70271;SHT31;57680;54.292;18.598;2024-02-15T12:56:07;10.45;94.49
70271;SHT31;57680;54.292;18.598;2024-02-15T12:58:33;10.46;94.67
70271;SHT31;57680;54.292;18.598;2024-02-15T13:00:58;10.46;94.62
70271;SHT31;57680;54.292;18.598;2024-02-15T13:03:23;10.42;94.69
70271;SHT31;57680;54.292;18.598;2024-02-15T13:05:49;10.45;94.65
70271;SHT31;57680;54.292;18.598;2024-02-15T13:08:14;10.41;94.77
70271;SHT31;57680;54.292;18.598;2024-02-15T13:10:40;10.41;94.81
70271;SHT31;57680;54.292;18.598;2024-02-15T13:13:05;10.34;94.68
70271;SHT31;57680;54.292;18.598;2024-02-15T13:15:31;10.28;94.78
70271;SHT31;57680;54.292;18.598;2024-02-15T13:17:56;10.25;95.16
70271;SHT31;57680;54.292;18.598;2024-02-15T13:20:25;10.31;95.29
70271;SHT31;57680;54.292;18.598;2024-02-15T13:22:51;10.28;95.22
70271;SHT31;57680;54.292;18.598;2024-02-15T13:25:16;10.27;95.35
70271;SHT31;57680;54.292;18.598;2024-02-15T13:27:42;10.30;95.56
70271;SHT31;57680;54.292;18.598;2024-02-15T13:30:08;10.28;95.48
70271;SHT31;57680;54.292;18.598;2024-02-15T13:32:38;10.33;95.68
70271;SHT31;57680;54.292;18.598;2024-02-15T13:35:05;10.33;95.45
70271;SHT31;57680;54.292;18.598;2024-02-15T13:37:31;10.31;95.43
70271;SHT31;57680;54.292;18.598;2024-02-15T13:39:56;10.25;95.17
70271;SHT31;57680;54.292;18.598;2024-02-15T13:42:22;10.24;95.43
70271;SHT31;57680;54.292;18.598;2024-02-15T13:44:47;10.25;95.56
70271;SHT31;57680;54.292;18.598;2024-02-15T13:47:12;10.25;95.29
70271;SHT31;57680;54.292;18.598;2024-02-15T13:49:38;10.22;95.45
70271;SHT31;57680;54.292;18.598;2024-02-15T13:52:05;10.24;95.40
70271;SHT31;57680;54.292;18.598;2024-02-15T13:54:30;10.17;95.44
70271;SHT31;57680;54.292;18.598;2024-02-15T13:56:56;10.17;95.63
70271;SHT31;57680;54.292;18.598;2024-02-15T13:59:21;10.17;95.75
70271;SHT31;57680;54.292;18.598;2024-02-15T14:01:47;10.15;95.68
70271;SHT31;57680;54.292;18.598;2024-02-15T14:04:12;10.17;95.90
70271;SHT31;57680;54.292;18.598;2024-02-15T14:06:38;10.21;96.01
70271;SHT31;57680;54.292;18.598;2024-02-15T14:09:03;10.22;96.07
70271;SHT31;57680;54.292;18.598;2024-02-15T14:11:28;10.25;96.01
70271;SHT31;57680;54.292;18.598;2024-02-15T14:13:54;10.21;95.66
70271;SHT31;57680;54.292;18.598;2024-02-15T14:16:19;10.25;95.73
70271;SHT31;57680;54.292;18.598;2024-02-15T14:18:44;10.20;95.94
70271;SHT31;57680;54.292;18.598;2024-02-15T14:21:09;10.18;95.99
70271;SHT31;57680;54.292;18.598;2024-02-15T14:23:35;10.15;95.98
70271;SHT31;57680;54.292;18.598;2024-02-15T14:26:00;10.10;95.97
70271;SHT31;57680;54.292;18.598;2024-02-15T14:28:26;10.07;96.05
70271;SHT31;57680;54.292;18.598;2024-02-15T14:30:51;10.05;96.12
70271;SHT31;57680;54.292;18.598;2024-02-15T14:33:16;10.00;96.29
70271;SHT31;57680;54.292;18.598;2024-02-15T14:35:45;10.00;96.49
70271;SHT31;57680;54.292;18.598;2024-02-15T14:38:12;9.93;96.53
70271;SHT31;57680;54.292;18.598;2024-02-15T14:40:45;9.91;96.96
70271;SHT31;57680;54.292;18.598;2024-02-15T14:43:11;9.89;97.20
70271;SHT31;57680;54.292;18.598;2024-02-15T14:45:37;9.87;97.39
70271;SHT31;57680;54.292;18.598;2024-02-15T14:48:02;9.87;97.50
70271;SHT31;57680;54.292;18.598;2024-02-15T14:50:28;9.86;97.59
70271;SHT31;57680;54.292;18.598;2024-02-15T14:52:53;9.86;97.63
70271;SHT31;57680;54.292;18.598;2024-02-15T14:55:19;9.84;97.68
70271;SHT31;57680;54.292;18.598;2024-02-15T14:57:45;9.80;97.72
70271;SHT31;57680;54.292;18.598;2024-02-15T15:00:10;9.80;97.76
70271;SHT31;57680;54.292;18.598;2024-02-15T15:02:37;9.74;97.80
70271;SHT31;57680;54.292;18.598;2024-02-15T15:05:02;9.70;97.90
70271;SHT31;57680;54.292;18.598;2024-02-15T15:07:28;9.67;98.00
70271;SHT31;57680;54.292;18.598;2024-02-15T15:09:53;9.67;98.03
70271;SHT31;57680;54.292;18.598;2024-02-15T15:12:19;9.63;98.10
70271;SHT31;57680;54.292;18.598;2024-02-15T15:14:44;9.60;98.17
70271;SHT31;57680;54.292;18.598;2024-02-15T15:17:09;9.59;98.21
70271;SHT31;57680;54.292;18.598;2024-02-15T15:19:35;9.56;98.23
70271;SHT31;57680;54.292;18.598;2024-02-15T15:22:00;9.56;98.31
70271;SHT31;57680;54.292;18.598;2024-02-15T15:24:25;9.55;98.42
70271;SHT31;57680;54.292;18.598;2024-02-15T15:26:51;9.49;98.24
70271;SHT31;57680;54.292;18.598;2024-02-15T15:29:16;9.45;98.28
70271;SHT31;57680;54.292;18.598;2024-02-15T15:31:41;9.39;98.14
70271;SHT31;57680;54.292;18.598;2024-02-15T15:34:07;9.34;98.28
70271;SHT31;57680;54.292;18.598;2024-02-15T15:36:32;9.35;98.71
70271;SHT31;57680;54.292;18.598;2024-02-15T15:38:57;9.36;98.78
70271;SHT31;57680;54.292;18.598;2024-02-15T15:41:23;9.38;98.77
70271;SHT31;57680;54.292;18.598;2024-02-15T15:43:48;9.35;98.82
70271;SHT31;57680;54.292;18.598;2024-02-15T15:46:14;9.34;98.82
70271;SHT31;57680;54.292;18.598;2024-02-15T15:48:39;9.34;98.75
70271;SHT31;57680;54.292;18.598;2024-02-15T15:51:05;9.28;98.79
70271;SHT31;57680;54.292;18.598;2024-02-15T15:53:30;9.24;98.92
70271;SHT31;57680;54.292;18.598;2024-02-15T15:55:57;9.24;98.94
70271;SHT31;57680;54.292;18.598;2024-02-15T15:58:43;9.19;98.95
70271;SHT31;57680;54.292;18.598;2024-02-15T16:01:10;9.21;99.06
70271;SHT31;57680;54.292;18.598;2024-02-15T16:03:35;9.15;99.11
70271;SHT31;57680;54.292;18.598;2024-02-15T16:06:01;9.16;99.23
70271;SHT31;57680;54.292;18.598;2024-02-15T16:08:26;9.19;99.38
70271;SHT31;57680;54.292;18.598;2024-02-15T16:10:52;9.19;99.45
70271;SHT31;57680;54.292;18.598;2024-02-15T16:13:17;9.16;99.44
70271;SHT31;57680;54.292;18.598;2024-02-15T16:15:42;9.22;99.50
70271;SHT31;57680;54.292;18.598;2024-02-15T16:18:07;9.21;99.49
70271;SHT31;57680;54.292;18.598;2024-02-15T16:20:33;9.16;99.42
70271;SHT31;57680;54.292;18.598;2024-02-15T16:22:58;9.12;99.46